createdAt,value
2019-02-18T00:02:19.993Z,63.85
2019-02-18T00:04:46.123Z,62.88
2019-02-18T00:07:14.789Z,63.47
2019-02-18T00:09:40.653Z,64.19
2019-02-18T00:12:06.942Z,63.09
2019-02-18T00:14:33.054Z,63.58
2019-02-18T00:16:59.405Z,64.59
2019-02-18T00:19:25.585Z,64.17
2019-02-18T00:21:52.883Z,63.21
2019-02-18T00:24:22.764Z,63.02
2019-02-18T00:26:48.873Z,62.73
2019-02-18T00:29:15.990Z,62.51
2019-02-18T00:31:42.052Z,62.91
2019-02-18T00:34:08.297Z,63.01
2019-02-18T00:36:34.376Z,62.77
2019-02-18T00:39:10.720Z,62.92
2019-02-18T00:41:36.797Z,62.63
2019-02-18T00:44:04.401Z,62.42
2019-02-18T00:46:30.498Z,62.28
2019-02-18T00:48:56.587Z,62.23
2019-02-18T00:51:22.691Z,62.01
2019-02-18T00:53:48.788Z,61.92
2019-02-18T00:56:14.981Z,61.96
2019-02-18T00:58:41.061Z,61.89
2019-02-18T01:01:07.252Z,62.06
2019-02-18T01:03:33.441Z,61.69
2019-02-18T01:05:59.621Z,61.52
2019-02-18T01:08:25.792Z,61.34
2019-02-18T01:10:52.090Z,61.77
2019-02-18T01:13:18.271Z,61.25
2019-02-18T01:15:44.428Z,61.48
2019-02-18T01:18:10.523Z,61.79
2019-02-18T01:20:37.370Z,61.87
2019-02-18T01:23:05.998Z,62.46
2019-02-18T01:25:32.073Z,62.49
2019-02-18T01:27:58.526Z,62.76
2019-02-18T01:30:24.739Z,63.51
2019-02-18T01:32:51.037Z,62.94
2019-02-18T01:35:17.117Z,62.51
2019-02-18T01:37:46.163Z,62.46
2019-02-18T01:40:12.783Z,62.12
2019-02-18T01:42:39.136Z,62.29
2019-02-18T01:45:08.370Z,62.51
2019-02-18T01:47:34.445Z,62.62
2019-02-18T01:50:05.310Z,62.20
2019-02-18T01:52:31.414Z,62.02
2019-02-18T01:54:57.493Z,62.43
2019-02-18T01:57:23.565Z,63.38
2019-02-18T01:59:49.889Z,63.34
2019-02-18T02:02:16.041Z,62.99
2019-02-18T02:04:42.344Z,62.75
2019-02-18T02:07:08.605Z,62.80
2019-02-18T02:09:34.902Z,63.62
2019-02-18T02:12:04.806Z,64.02
2019-02-18T02:14:30.914Z,63.43
2019-02-18T02:16:57.073Z,63.47
2019-02-18T02:19:23.382Z,62.84
2019-02-18T02:21:49.488Z,64.45
2019-02-18T02:24:15.651Z,64.32
2019-02-18T02:26:41.761Z,64.43
2019-02-18T02:29:07.936Z,64.35
2019-02-18T02:31:34.146Z,64.16
2019-02-18T02:34:00.226Z,64.30
2019-02-18T02:36:34.395Z,64.07
2019-02-18T02:39:00.571Z,64.35
2019-02-18T02:41:31.254Z,63.93
2019-02-18T02:43:57.320Z,65.02
2019-02-18T02:46:23.510Z,64.66
2019-02-18T02:48:50.704Z,63.71
2019-02-18T02:51:17.063Z,64.78
2019-02-18T02:53:43.267Z,65.32
2019-02-18T02:56:09.323Z,64.91
2019-02-18T02:58:35.435Z,65.25
2019-02-18T03:01:04.540Z,64.82
2019-02-18T03:03:34.361Z,65.38
2019-02-18T03:06:06.130Z,64.80
2019-02-18T03:08:32.330Z,65.33
2019-02-18T03:10:58.391Z,65.47
2019-02-18T03:13:25.581Z,65.21
2019-02-18T03:15:51.654Z,64.82
2019-02-18T03:18:17.756Z,64.62
2019-02-18T03:20:44.940Z,64.90
2019-02-18T03:23:11.317Z,64.30
2019-02-18T03:25:38.680Z,65.27
2019-02-18T03:28:17.723Z,65.13
2019-02-18T03:30:50.627Z,66.09
2019-02-18T03:33:23.385Z,66.10
2019-02-18T03:35:49.468Z,65.36
2019-02-18T03:38:15.564Z,65.06
2019-02-18T03:40:41.786Z,65.48
2019-02-18T03:43:07.967Z,64.75
2019-02-18T03:45:34.206Z,64.79
2019-02-18T03:48:04.906Z,64.05
2019-02-18T03:50:30.964Z,64.38
2019-02-18T03:52:57.271Z,64.22
2019-02-18T03:55:23.467Z,63.95
2019-02-18T03:57:49.881Z,63.95
2019-02-18T04:00:16.085Z,64.18
2019-02-18T04:02:42.248Z,63.92
2019-02-18T04:05:10.859Z,63.81
2019-02-18T04:07:36.954Z,63.22
2019-02-18T04:10:07.251Z,63.62
2019-02-18T04:12:33.315Z,63.74
2019-02-18T04:14:59.515Z,63.65
2019-02-18T04:17:26.682Z,63.14
2019-02-18T04:19:52.931Z,62.42
2019-02-18T04:22:19.041Z,62.50
2019-02-18T04:24:45.141Z,62.97
2019-02-18T04:27:11.237Z,63.43
2019-02-18T04:29:37.323Z,63.28
2019-02-18T04:32:05.048Z,63.58
2019-02-18T04:34:31.146Z,63.61
2019-02-18T04:36:57.266Z,64.06
2019-02-18T04:39:23.339Z,63.35
2019-02-18T04:41:49.448Z,63.37
2019-02-18T04:44:15.511Z,63.19
2019-02-18T04:46:41.746Z,63.19
2019-02-18T04:49:07.830Z,63.37
2019-02-18T04:51:33.927Z,63.83
2019-02-18T04:53:59.995Z,64.04
2019-02-18T04:56:26.172Z,64.23
2019-02-18T04:58:52.361Z,63.74
2019-02-18T05:01:18.460Z,64.19
2019-02-18T05:03:44.578Z,64.27
2019-02-18T05:06:10.661Z,63.84
2019-02-18T05:08:36.755Z,64.29
2019-02-18T05:11:02.826Z,63.88
2019-02-18T05:13:29.059Z,63.71
2019-02-18T05:15:55.138Z,63.73
2019-02-18T05:18:21.369Z,63.78
2019-02-18T05:20:47.525Z,63.98
2019-02-18T05:23:13.735Z,64.14
2019-02-18T05:25:39.934Z,64.09
2019-02-18T05:28:06.009Z,64.29
2019-02-18T05:30:32.099Z,64.17
2019-02-18T05:32:58.300Z,64.80
2019-02-18T05:35:24.411Z,64.62
2019-02-18T05:37:50.481Z,64.50
2019-02-18T05:40:16.598Z,64.23
2019-02-18T05:42:42.762Z,64.41
2019-02-18T05:45:08.962Z,65.58
2019-02-18T05:47:34.998Z,65.90
2019-02-18T05:50:01.160Z,65.31
2019-02-18T05:52:27.247Z,65.08
2019-02-18T05:54:53.351Z,65.33
2019-02-18T05:57:19.521Z,65.37
2019-02-18T05:59:45.729Z,65.55
2019-02-18T06:02:11.904Z,65.23
2019-02-18T06:04:37.984Z,65.84
2019-02-18T06:07:04.188Z,65.85
2019-02-18T06:09:31.396Z,65.41
2019-02-18T06:11:57.479Z,66.00
2019-02-18T06:14:23.551Z,66.06
2019-02-18T06:16:49.662Z,65.90
2019-02-18T06:19:15.742Z,65.81
2019-02-18T06:21:41.951Z,65.74
2019-02-18T06:24:08.023Z,65.46
2019-02-18T06:26:34.124Z,65.20
2019-02-18T06:29:00.228Z,65.36
2019-02-18T06:31:26.358Z,64.93
2019-02-18T06:33:52.449Z,65.04
2019-02-18T06:36:18.521Z,64.96
2019-02-18T06:38:44.628Z,64.75
2019-02-18T06:41:10.815Z,65.01
2019-02-18T06:43:37.016Z,65.29
2019-02-18T06:46:17.078Z,65.42
2019-02-18T06:48:50.876Z,64.93
2019-02-18T06:51:17.236Z,65.12
2019-02-18T06:53:43.299Z,65.26
2019-02-18T06:56:09.483Z,65.44
2019-02-18T06:58:40.548Z,64.64
2019-02-18T07:01:08.539Z,65.07
2019-02-18T07:03:36.525Z,65.22
2019-02-18T07:06:10.760Z,64.73
2019-02-18T07:08:56.124Z,64.61
2019-02-18T07:11:24.353Z,64.54
2019-02-18T07:13:50.464Z,64.14
2019-02-18T07:16:16.562Z,63.45
2019-02-18T07:18:42.705Z,64.37
2019-02-18T07:21:08.793Z,64.54
2019-02-18T07:23:34.979Z,64.79
2019-02-18T07:26:01.181Z,63.79
2019-02-18T07:28:27.270Z,64.07
2019-02-18T07:30:53.367Z,63.62
2019-02-18T07:33:19.476Z,63.66
2019-02-18T07:35:45.668Z,63.44
2019-02-18T07:38:11.844Z,62.99
2019-02-18T07:40:37.950Z,62.33
2019-02-18T07:43:04.138Z,62.28
2019-02-18T07:45:30.327Z,62.12
2019-02-18T07:47:56.452Z,61.99
2019-02-18T07:50:22.677Z,61.50
2019-02-18T07:52:48.744Z,61.15
2019-02-18T07:55:14.882Z,61.18
2019-02-18T07:57:40.968Z,61.27
2019-02-18T08:00:10.572Z,60.49
2019-02-18T08:02:36.670Z,60.10
2019-02-18T08:05:04.356Z,60.17
2019-02-18T08:07:30.450Z,58.50
2019-02-18T08:09:56.523Z,58.65
2019-02-18T08:12:22.631Z,58.88
2019-02-18T08:14:48.817Z,58.75
2019-02-18T08:17:14.940Z,58.47
2019-02-18T08:19:41.031Z,58.46
2019-02-18T08:22:07.094Z,57.41
2019-02-18T08:24:33.221Z,58.05
2019-02-18T08:26:59.310Z,57.28
2019-02-18T08:29:25.421Z,57.20
2019-02-18T08:31:51.510Z,56.58
2019-02-18T08:34:17.627Z,56.92
2019-02-18T08:36:44.597Z,55.78
2019-02-18T08:39:10.785Z,55.39
2019-02-18T08:41:36.853Z,55.42
2019-02-18T08:44:03.065Z,55.82
2019-02-18T08:46:29.258Z,54.88
2019-02-18T08:48:55.394Z,55.44
2019-02-18T08:51:21.460Z,54.72
2019-02-18T08:53:48.012Z,54.86
2019-02-18T08:56:14.136Z,54.91
2019-02-18T08:58:40.232Z,54.28
2019-02-18T09:01:06.341Z,53.36
2019-02-18T09:03:32.451Z,53.01
2019-02-18T09:05:58.548Z,53.37
2019-02-18T09:08:24.615Z,53.17
2019-02-18T09:10:50.742Z,52.70
2019-02-18T09:13:16.914Z,52.93
2019-02-18T09:15:43.026Z,51.92
2019-02-18T09:18:09.116Z,51.59
2019-02-18T09:22:31.851Z,51.65
2019-02-18T09:25:05.915Z,51.71
2019-02-18T09:27:32.035Z,51.75
2019-02-18T09:29:58.217Z,50.78
2019-02-18T09:32:24.448Z,50.28
2019-02-18T09:34:53.228Z,50.13
2019-02-18T09:37:18.823Z,49.20
2019-02-18T09:39:45.031Z,48.33
2019-02-18T09:42:11.250Z,48.35
2019-02-18T09:44:37.343Z,47.71
2019-02-18T09:47:03.547Z,47.08
2019-02-18T09:49:29.754Z,48.01
2019-02-18T09:51:55.878Z,46.25
2019-02-18T09:54:21.963Z,47.13
2019-02-18T09:56:48.201Z,46.34
2019-02-18T09:59:14.294Z,45.77
2019-02-18T10:01:43.062Z,45.91
2019-02-18T10:04:08.790Z,45.90
2019-02-18T10:06:34.933Z,45.94
2019-02-18T10:09:01.135Z,45.61
2019-02-18T10:11:27.342Z,45.46
2019-02-18T10:13:53.421Z,43.90
2019-02-18T10:16:19.511Z,43.39
2019-02-18T10:18:45.803Z,43.07
2019-02-18T10:21:12.036Z,42.66
2019-02-18T10:23:38.166Z,43.56
2019-02-18T10:26:04.249Z,43.58
2019-02-18T10:28:30.520Z,41.72
2019-02-18T10:30:56.697Z,41.32
2019-02-18T10:33:22.836Z,41.12
2019-02-18T10:35:48.933Z,41.25
2019-02-18T10:38:15.032Z,40.20
2019-02-18T10:40:41.222Z,40.60
2019-02-18T10:43:07.314Z,38.86
2019-02-18T10:45:33.445Z,38.21
2019-02-18T10:47:59.538Z,38.17
2019-02-18T10:50:25.657Z,37.97
2019-02-18T10:52:51.767Z,38.39
2019-02-18T10:55:18.069Z,35.37
2019-02-18T10:57:44.194Z,35.23
2019-02-18T11:00:14.937Z,35.63
2019-02-18T11:02:41.035Z,34.61
2019-02-18T11:05:07.783Z,36.21
2019-02-18T11:07:33.974Z,36.38
2019-02-18T11:10:00.339Z,36.67
2019-02-18T11:12:26.388Z,36.96
2019-02-18T11:14:52.473Z,37.46
2019-02-18T11:17:18.554Z,36.72
2019-02-18T11:19:44.627Z,37.13
2019-02-18T11:22:10.751Z,37.46
2019-02-18T11:24:37.164Z,37.22
2019-02-18T11:27:03.376Z,36.08
2019-02-18T11:29:29.574Z,35.54
2019-02-18T11:31:55.768Z,34.03
2019-02-18T11:34:21.893Z,33.85
2019-02-18T11:36:47.986Z,33.60
2019-02-18T11:39:15.168Z,33.47
2019-02-18T11:41:41.492Z,32.93
2019-02-18T11:44:07.661Z,32.37
2019-02-18T11:46:34.019Z,32.04
2019-02-18T11:49:00.213Z,31.71
2019-02-18T11:51:26.541Z,32.75
2019-02-18T11:53:52.652Z,31.76
2019-02-18T11:56:18.745Z,32.55
2019-02-18T11:58:44.846Z,32.91
2019-02-18T12:01:10.936Z,32.97
2019-02-18T12:03:37.037Z,31.60
2019-02-18T12:06:03.312Z,30.72
2019-02-18T12:08:29.582Z,30.82
2019-02-18T12:10:55.889Z,29.87
2019-02-18T12:13:21.998Z,29.99
2019-02-18T12:15:48.113Z,29.98
2019-02-18T12:18:14.309Z,29.99
2019-02-18T12:20:40.817Z,30.54
2019-02-18T12:23:07.853Z,30.10
2019-02-18T12:25:33.969Z,30.20
2019-02-18T12:28:00.058Z,30.50
2019-02-18T12:30:26.265Z,29.61
2019-02-18T12:32:52.367Z,30.48
2019-02-18T12:35:18.601Z,28.74
2019-02-18T12:37:54.664Z,29.28
2019-02-18T12:40:12.936Z,29.93
2019-02-18T12:42:39.146Z,30.04
2019-02-18T12:45:12.253Z,30.26
2019-02-18T12:47:38.579Z,29.47
2019-02-18T12:50:06.515Z,28.56
2019-02-18T12:52:32.817Z,29.25
2019-02-18T12:55:00.377Z,28.45
2019-02-18T12:57:27.041Z,28.83
2019-02-18T12:59:53.740Z,28.72
2019-02-18T13:02:20.027Z,29.08
2019-02-18T13:04:46.174Z,29.30
2019-02-18T13:07:12.343Z,28.39
2019-02-18T13:09:38.441Z,29.46
2019-02-18T13:12:04.628Z,28.50
2019-02-18T13:14:30.834Z,28.06
2019-02-18T13:16:57.026Z,27.35
2019-02-18T13:19:23.145Z,26.65
2019-02-18T13:21:49.374Z,26.94
2019-02-18T13:24:15.891Z,28.49
2019-02-18T13:26:42.248Z,26.89
2019-02-18T13:29:08.596Z,26.72
2019-02-18T13:31:34.918Z,26.64
2019-02-18T13:34:01.142Z,27.31
2019-02-18T13:36:27.442Z,28.06
2019-02-18T13:38:53.749Z,26.71
2019-02-18T13:41:19.963Z,27.46
2019-02-18T13:43:46.187Z,26.49
2019-02-18T13:46:12.635Z,26.85
2019-02-18T13:48:38.739Z,27.16
2019-02-18T13:51:04.985Z,26.58
2019-02-18T13:53:31.075Z,26.00
2019-02-18T13:55:57.330Z,25.76
2019-02-18T13:58:23.529Z,27.59
2019-02-18T14:00:49.748Z,27.08
2019-02-18T14:03:15.981Z,26.69
2019-02-18T14:05:42.303Z,27.05
2019-02-18T14:08:08.498Z,27.79
2019-02-18T14:10:34.699Z,27.24
2019-02-18T14:13:00.839Z,28.18
2019-02-18T14:15:27.170Z,26.95
2019-02-18T14:17:53.449Z,27.53
2019-02-18T14:20:19.865Z,28.03
2019-02-18T14:22:47.391Z,28.03
2019-02-18T14:25:13.869Z,27.95
2019-02-18T14:27:40.175Z,27.59
2019-02-18T14:30:11.998Z,27.32
2019-02-18T14:32:38.329Z,27.82
2019-02-18T14:35:05.433Z,27.33
2019-02-18T14:37:31.772Z,26.99
2019-02-18T14:39:57.955Z,27.25
2019-02-18T14:42:24.762Z,27.95
2019-02-18T14:44:51.906Z,28.42
2019-02-18T14:47:18.342Z,27.65
2019-02-18T14:49:44.678Z,28.08
2019-02-18T14:52:11.118Z,28.63
2019-02-18T14:54:37.341Z,28.41
2019-02-18T14:57:03.592Z,28.42
2019-02-18T14:59:29.780Z,28.59
2019-02-18T15:01:57.663Z,28.12
2019-02-18T15:04:23.874Z,27.95
2019-02-18T15:06:50.074Z,28.41
2019-02-18T15:09:16.460Z,28.22
2019-02-18T15:11:42.630Z,28.73
2019-02-18T15:14:09.001Z,28.67
2019-02-18T15:16:35.084Z,28.49
2019-02-18T15:19:01.345Z,28.55
2019-02-18T15:21:27.751Z,28.61
2019-02-18T15:23:53.979Z,28.86
2019-02-18T15:26:20.316Z,28.94
2019-02-18T15:28:46.383Z,28.82
2019-02-18T15:31:12.601Z,28.90
2019-02-18T15:33:38.946Z,28.51
2019-02-18T15:36:05.233Z,28.05
2019-02-18T15:38:31.575Z,27.60
2019-02-18T15:40:58.368Z,28.01
2019-02-18T15:43:24.604Z,29.34
2019-02-18T15:45:50.816Z,28.75
2019-02-18T15:48:17.037Z,29.10
2019-02-18T15:50:43.390Z,29.86
2019-02-18T15:53:09.571Z,30.44
2019-02-18T15:55:37.502Z,29.73
2019-02-18T15:58:03.705Z,30.18
2019-02-18T16:00:30.133Z,30.82
2019-02-18T16:02:56.337Z,30.07
2019-02-18T16:05:22.656Z,30.86
2019-02-18T16:07:48.919Z,30.94
2019-02-18T16:10:15.182Z,30.87
2019-02-18T16:12:41.383Z,30.19
2019-02-18T16:15:09.692Z,31.14
2019-02-18T16:17:35.811Z,31.68
2019-02-18T16:20:05.403Z,32.36
2019-02-18T16:22:31.518Z,32.31
2019-02-18T16:24:57.679Z,32.84
2019-02-18T16:27:23.783Z,33.66
2019-02-18T16:29:50.106Z,35.62
2019-02-18T16:32:21.171Z,34.57
2019-02-18T16:34:47.319Z,34.21
2019-02-18T16:37:14.936Z,35.04
2019-02-18T16:39:41.135Z,35.33
2019-02-18T16:42:14.614Z,36.08
2019-02-18T16:44:40.900Z,39.05
2019-02-18T16:47:07.246Z,36.94
2019-02-18T16:49:33.706Z,37.92
2019-02-18T16:51:59.960Z,39.64
2019-02-18T16:54:32.362Z,39.40
2019-02-18T16:57:05.216Z,39.92
2019-02-18T16:59:31.439Z,40.09
2019-02-18T17:01:57.815Z,40.83
2019-02-18T17:04:24.038Z,40.28
2019-02-18T17:06:50.161Z,39.77
2019-02-18T17:09:16.876Z,40.64
2019-02-18T17:11:43.035Z,41.23
2019-02-18T17:14:09.299Z,41.92
2019-02-18T17:16:35.407Z,42.93
2019-02-18T17:19:14.144Z,44.71
2019-02-18T17:21:40.271Z,44.47
2019-02-18T17:24:06.497Z,43.40
2019-02-18T17:26:33.004Z,42.59
2019-02-18T17:29:00.231Z,42.81
2019-02-18T17:31:26.565Z,43.02
2019-02-18T17:33:53.688Z,42.89
2019-02-18T17:36:19.908Z,44.80
2019-02-18T17:38:46.021Z,45.05
2019-02-18T17:41:18.311Z,45.79
2019-02-18T17:43:45.101Z,46.41
2019-02-18T17:46:11.859Z,46.14
2019-02-18T17:48:38.071Z,45.47
2019-02-18T17:51:06.493Z,44.95
2019-02-18T17:53:32.872Z,44.15
2019-02-18T17:55:59.010Z,45.26
2019-02-18T17:58:25.233Z,45.62
2019-02-18T18:00:53.446Z,44.76
2019-02-18T18:03:20.157Z,44.96
2019-02-18T18:05:46.378Z,44.31
2019-02-18T18:08:12.581Z,40.06
2019-02-18T18:10:45.187Z,37.39
2019-02-18T18:13:11.315Z,36.47
2019-02-18T18:15:47.089Z,36.66
2019-02-18T18:18:13.269Z,35.91
2019-02-18T18:20:45.667Z,36.33
2019-02-18T18:23:15.075Z,36.24
2019-02-18T18:25:48.329Z,35.79
2019-02-18T18:28:15.324Z,35.67
2019-02-18T18:30:44.231Z,36.05
2019-02-18T18:33:10.528Z,35.70
2019-02-18T18:35:36.798Z,35.50
2019-02-18T18:38:06.220Z,35.36
2019-02-18T18:40:39.001Z,35.91
2019-02-18T18:43:11.680Z,36.50
2019-02-18T18:45:37.847Z,35.29
2019-02-18T18:48:15.361Z,34.56
2019-02-18T18:50:41.588Z,34.65
2019-02-18T18:53:09.698Z,35.04
2019-02-18T18:55:36.039Z,34.02
2019-02-18T18:58:06.380Z,34.49
2019-02-18T19:00:32.599Z,34.45
2019-02-18T19:02:59.197Z,34.56
2019-02-18T19:05:25.401Z,34.59
2019-02-18T19:07:51.804Z,34.47
2019-02-18T19:10:18.235Z,34.99
2019-02-18T19:12:44.565Z,35.52
2019-02-18T19:15:12.580Z,35.47
2019-02-18T19:17:38.929Z,35.55
2019-02-18T19:20:08.213Z,35.93
2019-02-18T19:22:34.542Z,35.65
2019-02-18T19:25:07.775Z,35.82
2019-02-18T19:27:34.015Z,35.95
2019-02-18T19:30:00.229Z,36.40
2019-02-18T19:32:31.972Z,36.30
2019-02-18T19:35:09.964Z,36.72
2019-02-18T19:37:36.123Z,36.64
2019-02-18T19:40:09.152Z,37.23
2019-02-18T19:42:35.767Z,37.33
2019-02-18T19:45:13.131Z,37.32
2019-02-18T19:47:44.504Z,37.60
2019-02-18T19:50:10.819Z,37.77
2019-02-18T19:52:37.128Z,38.00
2019-02-18T19:55:06.330Z,38.02
2019-02-18T19:57:32.461Z,37.98
2019-02-18T19:59:58.685Z,38.65
2019-02-18T20:02:24.933Z,38.50
2019-02-18T20:04:52.160Z,38.60
2019-02-18T20:07:18.290Z,38.37
2019-02-18T20:09:44.504Z,38.61
2019-02-18T20:12:13.618Z,38.76
2019-02-18T20:14:39.920Z,39.15
2019-02-18T20:17:06.286Z,38.95
2019-02-18T20:19:32.597Z,39.09
2019-02-18T20:22:05.306Z,39.53
2019-02-18T20:24:38.654Z,39.35
2019-02-18T20:27:06.759Z,39.29
2019-02-18T20:29:32.970Z,39.27
2019-02-18T20:31:59.320Z,39.48
2019-02-18T20:34:25.448Z,39.70
2019-02-18T20:36:52.241Z,40.02
2019-02-18T20:39:22.152Z,40.25
2019-02-18T20:41:48.503Z,40.46
2019-02-18T20:44:18.071Z,40.66
2019-02-18T20:46:44.216Z,40.47
2019-02-18T20:49:10.554Z,40.30
2019-02-18T20:54:09.024Z,40.64
2019-02-18T20:56:35.161Z,40.65
2019-02-18T20:59:06.402Z,40.87
2019-02-18T21:01:39.684Z,41.46
2019-02-18T21:04:12.325Z,41.52
2019-02-18T21:06:41.412Z,41.75
2019-02-18T21:09:08.027Z,41.94
2019-02-18T21:11:34.675Z,41.93
2019-02-18T21:14:15.927Z,42.13
2019-02-18T21:16:40.688Z,42.38
2019-02-18T21:19:09.641Z,42.71
2019-02-18T21:21:36.171Z,43.26
2019-02-18T21:24:07.034Z,43.28
2019-02-18T21:26:33.235Z,43.59
2019-02-18T21:28:59.451Z,43.44
2019-02-18T21:31:25.573Z,43.58
2019-02-18T21:33:51.834Z,43.61
2019-02-18T21:36:18.065Z,44.40
2019-02-18T21:38:44.183Z,44.70
2019-02-18T21:41:10.486Z,44.44
2019-02-18T21:43:36.781Z,43.86
2019-02-18T21:46:05.035Z,44.41
2019-02-18T21:48:31.176Z,44.58
2019-02-18T21:50:57.421Z,45.02
2019-02-18T21:53:23.492Z,45.43
2019-02-18T21:55:49.761Z,44.83
2019-02-18T21:58:21.773Z,46.18
2019-02-18T22:00:49.093Z,46.15
2019-02-18T22:03:15.453Z,46.28
2019-02-18T22:05:41.587Z,46.27
2019-02-18T22:08:11.542Z,47.04
2019-02-18T22:10:37.638Z,46.72
2019-02-18T22:13:08.656Z,48.39
2019-02-18T22:15:35.032Z,47.77
2019-02-18T22:18:09.192Z,47.85
2019-02-18T22:20:35.523Z,47.78
2019-02-18T22:23:06.175Z,47.65
2019-02-18T22:25:32.366Z,48.43
2019-02-18T22:27:58.488Z,48.60
2019-02-18T22:30:24.676Z,48.45
2019-02-18T22:32:55.298Z,47.98
2019-02-18T22:35:21.385Z,48.77
2019-02-18T22:37:47.486Z,49.24
2019-02-18T22:40:13.680Z,49.31
2019-02-18T22:42:39.918Z,49.50
2019-02-18T22:45:08.202Z,49.66
2019-02-18T22:47:34.543Z,49.45
2019-02-18T22:52:40.120Z,49.69
2019-02-18T22:55:07.288Z,49.92
2019-02-18T22:57:33.502Z,50.15
2019-02-18T22:59:59.692Z,50.29
2019-02-18T23:02:26.147Z,49.94
2019-02-18T23:04:52.429Z,50.40
2019-02-18T23:07:18.518Z,50.16
2019-02-18T23:09:44.830Z,50.13
2019-02-18T23:12:11.068Z,50.34
2019-02-18T23:14:37.291Z,50.87
2019-02-18T23:17:10.979Z,51.42
2019-02-18T23:19:37.092Z,51.33
2019-02-18T23:22:04.919Z,51.53
2019-02-18T23:24:31.170Z,51.35
2019-02-18T23:26:57.485Z,51.48
2019-02-18T23:29:23.994Z,51.17
2019-02-18T23:31:50.081Z,51.26
2019-02-18T23:34:16.197Z,51.22
2019-02-18T23:36:42.564Z,51.31
2019-02-18T23:39:08.772Z,51.37
2019-02-18T23:41:35.006Z,51.57
2019-02-18T23:44:04.125Z,51.63
2019-02-18T23:46:30.464Z,51.40
2019-02-18T23:48:56.705Z,51.82
2019-02-18T23:51:22.849Z,51.84
2019-02-18T23:53:48.941Z,51.75
2019-02-18T23:56:15.023Z,51.66
2019-02-18T23:58:41.252Z,51.73
